createdAt,value
2022-10-24T07:19:59.259Z,22.9
2022-10-24T07:25:05.303Z,23
2022-10-24T07:30:13.237Z,22.9
2022-10-24T07:35:21.165Z,22.8
2022-10-24T07:40:29.054Z,22.8
2022-10-24T07:45:37.012Z,22.8
2022-10-24T07:50:44.945Z,22.8
2022-10-24T07:55:52.853Z,22.8
2022-10-24T08:01:00.809Z,22.7
2022-10-24T08:06:08.730Z,22.8
2022-10-24T08:11:16.627Z,22.8
2022-10-24T08:16:24.534Z,22.8
2022-10-24T08:21:32.500Z,22.9
2022-10-24T08:26:40.369Z,22.9
2022-10-24T08:31:48.388Z,22.9
2022-10-24T08:36:56.272Z,23
2022-10-24T08:42:04.156Z,23
2022-10-24T08:47:12.083Z,23
2022-10-24T08:52:20.077Z,23
2022-10-24T08:57:27.983Z,23
2022-10-24T09:02:34.149Z,23
2022-10-24T09:07:40.099Z,23.1
2022-10-24T09:12:46.117Z,23.1
2022-10-24T09:17:52.145Z,23.1
2022-10-24T09:22:58.226Z,23.2
2022-10-24T09:28:04.260Z,23.2
2022-10-24T09:33:10.299Z,23.2
2022-10-24T09:38:16.379Z,23.3
2022-10-24T09:43:22.409Z,23.3
2022-10-24T09:48:30.347Z,23.3
2022-10-24T09:58:42.461Z,23.3
2022-10-24T10:03:48.492Z,23.3
2022-10-24T10:08:54.535Z,23.3
2022-10-24T10:14:00.606Z,23.3
2022-10-24T10:19:06.661Z,23.3
2022-10-24T10:24:12.698Z,23.3
2022-10-24T10:29:18.769Z,23.3
2022-10-24T10:34:24.801Z,23.3
2022-10-24T10:39:30.843Z,23.3
2022-10-24T10:44:36.937Z,23.3
2022-10-24T10:49:42.966Z,23.3
2022-10-24T10:54:49.015Z,23.4
2022-10-24T10:59:55.088Z,23.4
2022-10-24T11:05:01.129Z,23.4
2022-10-24T11:10:07.219Z,23.4
2022-10-24T11:15:13.297Z,23.5
2022-10-24T11:20:19.259Z,23.5
2022-10-24T11:25:25.330Z,23.6
2022-10-24T11:35:39.321Z,23.6
2022-10-24T11:40:45.351Z,23.6
2022-10-24T11:50:59.350Z,23.6
2022-10-24T11:56:05.375Z,23.6
2022-10-24T12:01:11.529Z,23.7
2022-10-24T12:06:17.504Z,23.7
2022-10-24T12:11:23.525Z,23.7
2022-10-24T12:16:29.599Z,23.7
2022-10-24T12:21:35.656Z,23.7
2022-10-24T12:26:41.692Z,23.7
2022-10-24T12:31:47.774Z,23.7
2022-10-24T12:36:53.801Z,23.7
2022-10-24T12:41:59.872Z,23.7
2022-10-24T12:47:05.889Z,23.7
2022-10-24T12:52:11.962Z,23.8
2022-10-24T12:57:17.997Z,23.8
2022-10-24T13:02:24.232Z,23.8
2022-10-24T13:07:30.138Z,23.8
2022-10-24T13:12:36.159Z,23.9
2022-10-24T13:17:42.366Z,23.9
2022-10-24T13:22:48.529Z,23.9
2022-10-24T13:27:54.322Z,23.9
2022-10-24T13:33:00.382Z,23.9
2022-10-24T13:38:07.856Z,23.9
2022-10-24T13:43:12.508Z,23.9
2022-10-24T13:48:18.518Z,23.9
2022-10-24T13:53:30.620Z,23.9
2022-10-24T13:58:33.554Z,23.9
2022-10-24T14:03:39.132Z,24
2022-10-24T14:08:42.754Z,24
2022-10-24T14:13:48.786Z,24
2022-10-24T14:18:54.835Z,23.9
2022-10-24T14:24:00.902Z,23.9
2022-10-24T14:29:06.963Z,23.9
2022-10-24T14:34:13.006Z,23.8
2022-10-24T14:39:19.047Z,23.8
2022-10-24T14:44:25.091Z,23.7
2022-10-24T14:49:31.149Z,23.7
2022-10-24T14:54:37.226Z,23.6
2022-10-24T14:59:43.272Z,23.5
2022-10-24T15:04:49.292Z,23.4
2022-10-24T15:09:55.397Z,23.3
2022-10-24T15:15:01.409Z,23.2
2022-10-24T15:20:07.482Z,23.1
2022-10-24T15:25:13.574Z,23
2022-10-24T15:30:19.583Z,23
2022-10-24T15:35:25.610Z,22.9
2022-10-24T15:40:31.711Z,22.8
2022-10-24T15:45:37.744Z,22.7
2022-10-24T15:50:43.780Z,22.7
2022-10-24T15:55:49.869Z,22.6
2022-10-24T16:00:55.939Z,22.6
2022-10-24T16:06:01.965Z,22.5
2022-10-24T16:11:09.994Z,22.5
2022-10-24T16:16:14.050Z,22.4
2022-10-24T16:21:20.086Z,22.4
2022-10-24T16:26:26.279Z,22.3
2022-10-24T16:31:32.202Z,22.3
2022-10-24T16:36:38.247Z,22.2
2022-10-24T16:41:44.323Z,22.2
2022-10-24T16:46:50.351Z,22.2
2022-10-24T16:51:56.393Z,22.1
2022-10-24T16:57:02.459Z,22.1
2022-10-24T17:02:08.635Z,22.1
2022-10-24T17:07:14.559Z,22
2022-10-24T17:12:20.642Z,22
2022-10-24T17:17:26.661Z,22
2022-10-24T17:27:38.802Z,21.9
2022-10-24T17:32:45.278Z,21.9
2022-10-24T17:37:50.885Z,21.8
2022-10-24T17:42:56.938Z,21.8
2022-10-24T17:48:02.977Z,21.8
2022-10-24T17:53:09.043Z,21.8
2022-10-24T17:58:15.102Z,21.7
2022-10-24T18:03:21.126Z,21.7
2022-10-24T18:08:27.196Z,21.7
2022-10-24T18:13:33.269Z,21.7
2022-10-24T18:18:39.303Z,21.7
2022-10-24T18:23:45.335Z,21.6
2022-10-24T18:28:51.404Z,21.6
2022-10-24T18:33:57.457Z,21.6
2022-10-24T18:39:03.502Z,21.6
2022-10-24T18:44:09.585Z,21.5
2022-10-24T18:49:15.598Z,21.5
2022-10-24T18:54:21.701Z,21.5
2022-10-24T18:59:27.737Z,21.5
2022-10-24T19:04:33.771Z,21.5
2022-10-24T19:09:39.928Z,21.5
2022-10-24T19:14:45.931Z,21.4
2022-10-24T19:19:51.931Z,21.4
2022-10-24T19:30:05.927Z,21.4
2022-10-24T19:35:11.951Z,21.4
2022-10-24T19:40:18.025Z,21.3
2022-10-24T19:45:25.227Z,21.3
2022-10-24T19:50:30.120Z,21.3
2022-10-24T19:55:36.156Z,21.3
2022-10-24T20:00:42.314Z,21.3
2022-10-24T20:05:48.258Z,21.3
2022-10-24T20:10:54.308Z,21.3
2022-10-24T20:16:00.397Z,21.3
2022-10-24T20:21:06.432Z,21.2
2022-10-24T20:26:12.488Z,21.2
2022-10-24T20:31:18.566Z,21.2
2022-10-24T20:36:24.582Z,21.2
2022-10-24T20:41:30.630Z,21.2
2022-10-24T20:46:37.837Z,21.2
2022-10-24T20:51:43.859Z,21.2
2022-10-24T20:56:49.923Z,21.2
2022-10-24T21:01:56.105Z,21.1
2022-10-24T21:07:02.025Z,21.1
2022-10-24T21:12:08.067Z,21.1
2022-10-24T21:17:14.175Z,21.1
2022-10-24T21:22:20.178Z,21.1
2022-10-24T21:27:26.231Z,21.1
2022-10-24T21:32:32.305Z,21.1
2022-10-24T21:37:38.344Z,21.1
2022-10-24T21:42:44.679Z,21
2022-10-24T21:47:50.458Z,21
2022-10-24T21:52:56.546Z,21
2022-10-24T21:58:02.549Z,21
2022-10-24T22:03:08.656Z,21
2022-10-24T22:08:14.665Z,21
2022-10-24T22:13:20.703Z,21
2022-10-24T22:18:26.783Z,21
2022-10-24T22:23:32.804Z,21
2022-10-24T22:28:38.862Z,20.9
2022-10-24T22:33:44.925Z,20.9
2022-10-24T22:38:50.961Z,20.9
2022-10-24T22:43:57.012Z,20.9
2022-10-24T22:54:11.021Z,20.9
2022-10-24T22:59:17.053Z,20.9
2022-10-24T23:04:23.122Z,20.9
2022-10-24T23:09:29.171Z,20.9
2022-10-24T23:14:35.181Z,20.8
2022-10-24T23:19:41.229Z,20.8
2022-10-24T23:24:47.310Z,20.8
2022-10-24T23:29:53.363Z,20.8
2022-10-24T23:34:59.409Z,20.8
2022-10-24T23:40:05.495Z,20.8
2022-10-24T23:45:11.514Z,20.8
2022-10-24T23:50:17.562Z,20.8
2022-10-24T23:55:23.671Z,20.8
